Time;durP1;ratioP1;P1;durP2;ratioP2;P2;SDS_P1;SDS_P2;PMS_P1;PMS_P2;Temp;Humidity;BMP_temperature;BMP_pressure;BME280_temperature;BME280_humidity;BME280_pressure;Samples;Min_cycle;Max_cycle;Signal;HPM_P1;HPM_P2
2022/08/10 00:00:20;;;;;;;2.13;1.92;;;18.60;94.60;;;;;;5047035;28;20394;-67
2022/08/10 00:02:52;;;;;;;2.10;1.75;;;18.60;94.90;;;;;;5049308;28;20053;-67
2022/08/10 00:05:18;;;;;;;2.47;1.70;;;18.60;95.30;;;;;;5047780;28;20477;-67
2022/08/10 00:07:44;;;;;;;2.42;1.83;;;18.50;95.10;;;;;;5042278;28;20079;-66
2022/08/10 00:10:11;;;;;;;3.10;2.33;;;18.50;95.00;;;;;;5049020;28;20057;-66
2022/08/10 00:12:37;;;;;;;2.65;2.40;;;19.40;95.50;;;;;;5052618;28;20036;-67
2022/08/10 00:15:04;;;;;;;2.72;1.80;;;18.50;95.30;;;;;;5044356;28;20040;-66
2022/08/10 00:17:30;;;;;;;2.38;1.75;;;18.40;95.10;;;;;;5051053;28;20040;-66
2022/08/10 00:19:55;;;;;;;1.75;1.63;;;18.50;95.20;;;;;;5035759;28;20052;-67
2022/08/10 00:22:21;;;;;;;4.35;1.92;;;18.30;95.30;;;;;;5041811;28;20107;-66
2022/08/10 00:24:47;;;;;;;2.40;1.80;;;18.30;95.40;;;;;;5047742;28;20036;-67
2022/08/10 00:27:12;;;;;;;2.83;1.05;;;18.30;95.40;;;;;;5045571;28;20109;-67
2022/08/10 00:29:38;;;;;;;2.15;1.67;;;18.40;95.50;;;;;;5048091;28;20044;-67
2022/08/10 00:32:06;;;;;;;3.17;1.42;;;18.30;95.60;;;;;;5050391;28;20025;-67
2022/08/10 00:34:32;;;;;;;5.03;2.05;;;18.30;95.60;;;;;;5040083;28;20029;-67
2022/08/10 00:36:59;;;;;;;3.13;1.95;;;18.40;95.80;;;;;;5046496;28;20020;-67
2022/08/10 00:39:25;;;;;;;3.85;2.00;;;18.20;95.80;;;;;;5048300;28;20067;-67
2022/08/10 00:41:51;;;;;;;5.00;2.10;;;18.30;95.90;;;;;;5051650;28;20039;-67
2022/08/10 00:44:16;;;;;;;3.00;1.83;;;18.20;95.90;;;;;;5047278;28;20464;-67
2022/08/10 00:46:42;;;;;;;1.52;1.38;;;18.20;95.90;;;;;;5043476;28;20041;-67
2022/08/10 00:49:08;;;;;;;1.77;1.65;;;18.70;96.00;;;;;;5040323;28;20034;-66
2022/08/10 00:51:33;;;;;;;2.47;1.50;;;18.20;96.00;;;;;;5048618;28;20033;-67
2022/08/10 00:53:59;;;;;;;1.70;1.60;;;18.20;96.10;;;;;;5047403;28;20060;-66
2022/08/10 00:56:25;;;;;;;2.85;1.73;;;18.10;96.20;;;;;;5037166;28;20037;-67
2022/08/10 00:58:51;;;;;;;4.45;1.40;;;18.10;96.30;;;;;;5048226;28;20045;-66
2022/08/10 01:01:17;;;;;;;2.47;1.50;;;18.20;96.20;;;;;;5042329;28;20143;-67
2022/08/10 01:03:42;;;;;;;3.28;1.70;;;;;;;;;;5045517;28;20033;-67
2022/08/10 01:06:17;;;;;;;2.88;1.58;;;18.20;95.00;;;;;;5048086;28;20025;-67
2022/08/10 01:08:42;;;;;;;2.10;1.50;;;18.20;96.60;;;;;;5045833;28;20037;-67
2022/08/10 01:11:13;;;;;;;2.20;1.58;;;18.10;96.20;;;;;;5038480;28;20037;-67
2022/08/10 01:13:54;;;;;;;2.42;1.30;;;18.30;96.50;;;;;;5045141;28;20044;-67
2022/08/10 01:16:31;;;;;;;5.15;1.75;;;19.00;96.80;;;;;;5040564;28;20029;-67
2022/08/10 01:19:10;;;;;;;1.70;1.33;;;18.00;95.80;;;;;;5042592;28;20048;-67
2022/08/10 01:21:47;;;;;;;3.25;1.73;;;18.20;95.90;;;;;;5051801;28;20048;-66
2022/08/10 01:24:21;;;;;;;1.80;1.50;;;18.20;96.90;;;;;;5047285;28;20488;-67
2022/08/10 01:27:08;;;;;;;1.88;1.30;;;18.00;96.10;;;;;;5042676;28;20040;-66
2022/08/10 01:30:03;;;;;;;1.55;1.20;;;18.00;96.30;;;;;;5049090;28;20041;-66
2022/08/10 01:32:46;;;;;;;1.77;1.50;;;17.90;96.20;;;;;;5042609;28;20034;-66
2022/08/10 01:35:30;;;;;;;2.85;1.38;;;17.90;96.40;;;;;;5045132;28;20484;-67
2022/08/10 01:38:03;;;;;;;1.33;1.23;;;17.70;96.40;;;;;;5048515;28;20071;-67
2022/08/10 01:40:34;;;;;;;2.00;1.70;;;17.70;96.20;;;;;;5049697;28;20017;-67
2022/08/10 01:43:03;;;;;;;2.47;1.65;;;17.80;97.20;;;;;;5045292;28;20033;-67
2022/08/10 01:45:31;;;;;;;2.65;1.50;;;17.70;97.20;;;;;;5048886;28;20025;-67
2022/08/10 01:50:50;;;;;;;1.77;1.55;;;17.50;97.10;;;;;;5038045;28;20044;-67
2022/08/10 01:53:21;;;;;;;2.50;1.75;;;17.60;97.50;;;;;;5042640;28;20026;-67
2022/08/10 01:55:50;;;;;;;3.80;1.73;;;17.50;97.50;;;;;;5046179;28;20034;-67
2022/08/10 01:58:17;;;;;;;5.40;1.98;;;17.50;97.40;;;;;;5039406;28;20029;-67
2022/08/10 02:00:45;;;;;;;2.35;1.65;;;18.10;97.60;;;;;;5037260;28;20082;-67
2022/08/10 02:03:13;;;;;;;2.83;1.80;;;17.20;97.50;;;;;;5044772;28;20375;-67
2022/08/10 02:05:42;;;;;;;3.15;2.63;;;17.40;97.60;;;;;;5049247;28;20013;-67
2022/08/10 02:08:13;;;;;;;4.28;2.28;;;17.50;97.80;;;;;;5043320;28;20123;-66
2022/08/10 02:10:41;;;;;;;2.42;2.00;;;17.30;98.00;;;;;;5048168;28;20040;-67
2022/08/10 02:13:08;;;;;;;4.07;2.13;;;17.20;97.80;;;;;;5048909;28;20052;-67
2022/08/10 02:15:37;;;;;;;3.08;2.15;;;17.20;97.90;;;;;;5050122;28;20171;-67
2022/08/10 02:18:05;;;;;;;3.50;1.98;;;17.30;98.10;;;;;;5048064;28;20033;-67
2022/08/10 02:20:40;;;;;;;5.85;3.30;;;17.20;98.10;;;;;;5035879;28;20033;-67
2022/08/10 02:23:11;;;;;;;5.25;2.47;;;17.20;98.50;;;;;;5044144;28;20026;-67
2022/08/10 02:25:39;;;;;;;5.00;2.10;;;17.20;98.40;;;;;;5047011;28;20105;-66
2022/08/10 02:28:06;;;;;;;2.80;1.90;;;17.20;98.40;;;;;;5036872;28;20036;-67
2022/08/10 02:30:34;;;;;;;2.63;2.30;;;17.20;98.50;;;;;;5033925;28;20033;-67
2022/08/10 02:33:00;;;;;;;2.78;2.58;;;17.70;98.70;;;;;;5045823;28;20017;-67
2022/08/10 02:35:28;;;;;;;3.25;2.30;;;17.30;98.70;;;;;;5041552;28;20029;-67
2022/08/10 02:38:00;;;;;;;5.03;2.25;;;17.10;98.90;;;;;;5045534;28;20017;-67
2022/08/10 02:40:29;;;;;;;3.22;2.63;;;17.00;99.00;;;;;;5040751;28;20545;-67
2022/08/10 02:43:23;;;;;;;4.07;2.50;;;16.90;99.00;;;;;;5048161;28;20324;-67
2022/08/10 02:45:58;;;;;;;2.47;2.13;;;17.00;99.30;;;;;;5028445;28;20029;-67
2022/08/10 02:48:36;;;;;;;2.67;2.38;;;17.90;99.70;;;;;;5047986;28;20037;-67
2022/08/10 02:51:14;;;;;;;3.30;2.65;;;16.90;99.30;;;;;;5049244;28;20048;-67
2022/08/10 02:53:46;;;;;;;2.50;2.30;;;16.90;99.50;;;;;;5042716;28;20422;-67
2022/08/10 02:56:38;;;;;;;3.38;3.03;;;16.80;98.70;;;;;;5048349;28;20036;-66
2022/08/10 02:59:13;;;;;;;5.18;2.80;;;16.90;99.80;;;;;;5030021;28;20044;-67
2022/08/10 03:01:45;;;;;;;3.38;2.50;;;17.00;99.00;;;;;;5048220;28;20056;-67
2022/08/10 03:04:22;;;;;;;3.33;3.03;;;16.90;99.80;;;;;;5029849;28;20124;-67
2022/08/10 03:06:59;;;;;;;3.33;3.03;;;16.50;99.80;;;;;;5038058;28;20159;-67
2022/08/10 03:09:27;;;;;;;3.28;2.80;;;16.70;99.90;;;;;;5045298;28;20099;-67
2022/08/10 03:11:54;;;;;;;4.43;2.58;;;16.60;99.90;;;;;;5043522;28;20028;-66
2022/08/10 03:14:21;;;;;;;3.58;2.67;;;16.70;99.90;;;;;;5046560;28;20497;-67
2022/08/10 03:16:48;;;;;;;4.35;2.88;;;16.70;99.90;;;;;;5049686;28;20025;-67
2022/08/10 03:19:16;;;;;;;5.20;3.53;;;16.70;99.20;;;;;;5039008;28;20033;-67
2022/08/10 03:21:42;;;;;;;3.17;2.95;;;16.50;99.90;;;;;;5049550;28;20436;-66
2022/08/10 03:24:09;;;;;;;3.30;3.00;;;16.60;99.90;;;;;;5038761;28;20017;-66
2022/08/10 03:26:36;;;;;;;3.78;3.22;;;16.60;99.90;;;;;;5045921;28;20035;-67
2022/08/10 03:29:03;;;;;;;7.13;3.25;;;16.50;99.90;;;;;;5033374;28;20057;-67
2022/08/10 03:31:31;;;;;;;8.73;4.25;;;16.50;99.90;;;;;;5049133;28;20029;-68
2022/08/10 03:33:59;;;;;;;4.78;3.60;;;16.50;99.90;;;;;;5040083;28;20025;-67
2022/08/10 03:36:24;;;;;;;4.60;3.05;;;16.50;99.90;;;;;;5035317;28;20029;-66
2022/08/10 03:38:50;;;;;;;6.40;4.18;;;16.40;99.90;;;;;;5048946;28;20607;-67
2022/08/10 03:41:20;;;;;;;4.47;3.63;;;16.10;99.90;;;;;;5047863;28;20025;-67
2022/08/10 03:43:48;;;;;;;7.07;4.95;;;16.40;99.90;;;;;;5034965;28;20021;-67
2022/08/10 03:46:16;;;;;;;5.07;3.70;;;16.40;99.90;;;;;;5048200;28;20527;-67
2022/08/10 03:48:44;;;;;;;3.65;3.35;;;16.40;99.90;;;;;;5044141;28;20013;-66
2022/08/10 03:51:11;;;;;;;4.60;4.10;;;17.30;99.90;;;;;;5048608;28;20490;-66
2022/08/10 03:53:37;;;;;;;5.35;3.92;;;16.30;99.90;;;;;;5041472;28;20029;-66
2022/08/10 03:56:03;;;;;;;5.15;3.90;;;16.30;99.90;;;;;;5038615;28;20036;-66
2022/08/10 03:58:29;;;;;;;4.72;4.32;;;16.30;99.90;;;;;;5038579;28;20109;-67
2022/08/10 04:00:56;;;;;;;5.60;3.63;;;16.40;99.90;;;;;;5034246;28;20434;-67
2022/08/10 04:03:21;;;;;;;5.63;4.65;;;16.30;99.90;;;;;;5035015;28;20030;-66
2022/08/10 04:05:47;;;;;;;7.20;3.72;;;16.30;99.90;;;;;;5043112;28;20028;-67
2022/08/10 04:08:13;;;;;;;5.22;3.83;;;16.20;99.90;;;;;;5048506;28;20036;-67
2022/08/10 04:10:39;;;;;;;5.30;3.63;;;16.00;99.90;;;;;;5044593;28;20033;-66
2022/08/10 04:13:04;;;;;;;4.88;4.10;;;16.10;99.90;;;;;;5048308;28;20035;-67
2022/08/10 04:15:30;;;;;;;4.35;3.83;;;16.10;99.90;;;;;;5051691;28;20040;-67
2022/08/10 04:17:56;;;;;;;5.93;5.07;;;16.20;99.90;;;;;;5050186;28;20100;-66
2022/08/10 04:20:41;;;;;;;5.25;4.75;;;16.20;99.90;;;;;;5040578;28;20029;-66
2022/08/10 04:23:11;;;;;;;7.03;4.78;;;16.20;99.90;;;;;;5031212;28;20034;-66
2022/08/10 04:25:38;;;;;;;5.50;5.00;;;16.10;99.90;;;;;;5047057;28;20032;-67
2022/08/10 04:28:05;;;;;;;5.68;5.18;;;16.10;99.90;;;;;;5041085;28;20513;-69
2022/08/10 04:30:33;;;;;;;6.72;5.38;;;16.10;99.90;;;;;;5044048;28;20110;-67
2022/08/10 04:33:00;;;;;;;10.18;5.93;;;16.40;99.90;;;;;;5064672;28;20642;-67
2022/08/10 04:35:28;;;;;;;5.25;4.57;;;16.00;99.90;;;;;;5050274;28;20017;-67
2022/08/10 04:37:55;;;;;;;7.50;5.70;;;16.20;99.90;;;;;;5049477;28;20091;-67
2022/08/10 04:40:22;;;;;;;6.75;5.35;;;16.00;99.90;;;;;;5050351;28;20025;-66
2022/08/10 04:42:47;;;;;;;6.35;4.80;;;16.00;99.90;;;;;;5050811;28;20052;-67
2022/08/10 04:45:15;;;;;;;8.35;5.40;;;14.50;99.90;;;;;;5038299;28;20437;-67
2022/08/10 04:47:40;;;;;;;6.45;5.65;;;16.10;99.90;;;;;;5050387;28;20029;-67
2022/08/10 04:50:06;;;;;;;7.55;5.50;;;16.00;99.90;;;;;;5044603;28;20051;-67
2022/08/10 04:52:32;;;;;;;6.85;5.85;;;16.00;99.90;;;;;;5041929;28;20031;-67
2022/08/10 04:54:58;;;;;;;6.35;5.22;;;16.00;99.90;;;;;;5038978;28;20461;-67
2022/08/10 04:57:23;;;;;;;6.03;5.30;;;16.20;99.90;;;;;;5051245;28;20025;-67
2022/08/10 04:59:49;;;;;;;10.48;7.15;;;16.10;99.90;;;;;;5051000;28;20035;-67
2022/08/10 05:02:15;;;;;;;13.18;7.18;;;16.00;99.90;;;;;;5049572;28;20049;-67
2022/08/10 05:04:40;;;;;;;11.93;6.93;;;16.20;99.90;;;;;;5042335;28;20033;-67
2022/08/10 05:07:11;;;;;;;10.27;6.50;;;16.00;99.90;;;;;;5046394;28;20047;-66
2022/08/10 05:09:41;;;;;;;7.72;6.70;;;16.10;99.90;;;;;;5051694;28;20025;-67
2022/08/10 05:12:07;;;;;;;9.02;7.25;;;16.10;99.90;;;;;;5051383;28;20421;-66
2022/08/10 05:14:33;;;;;;;8.00;7.13;;;16.20;99.90;;;;;;5050944;28;20090;-66
2022/08/10 05:16:59;;;;;;;6.75;5.47;;;16.50;99.90;;;;;;5051288;28;20021;-66
2022/08/10 05:19:25;;;;;;;9.50;7.63;;;16.20;99.90;;;;;;5051395;28;20507;-66
2022/08/10 05:21:51;;;;;;;7.65;6.95;;;16.20;99.90;;;;;;5049942;28;20024;-66
2022/08/10 05:24:16;;;;;;;9.45;7.28;;;16.30;99.90;;;;;;5050300;28;20017;-66
2022/08/10 05:26:42;;;;;;;8.50;7.55;;;16.30;99.90;;;;;;5051039;28;20063;-67
2022/08/10 05:29:07;;;;;;;10.07;7.90;;;16.40;99.90;;;;;;5050357;28;20027;-67
2022/08/10 05:31:33;;;;;;;8.07;7.20;;;16.40;99.90;;;;;;5051289;28;20549;-67
2022/08/10 05:33:58;;;;;;;11.25;8.43;;;16.40;99.90;;;;;;5045928;28;20048;-67
2022/08/10 05:36:24;;;;;;;9.10;8.20;;;16.60;99.90;;;;;;5046063;28;20029;-66
2022/08/10 05:38:50;;;;;;;13.20;7.50;;;16.60;99.90;;;;;;5051134;28;20358;-66
2022/08/10 05:41:17;;;;;;;11.65;8.32;;;16.60;99.90;;;;;;5049680;28;20029;-67
2022/08/10 05:43:43;;;;;;;9.65;8.65;;;16.70;99.90;;;;;;5048721;28;20025;-66
2022/08/10 05:46:09;;;;;;;13.77;7.75;;;16.70;99.90;;;;;;5050741;28;20080;-66
2022/08/10 05:48:36;;;;;;;8.90;7.90;;;16.80;99.90;;;;;;5050548;28;20059;-66
2022/08/10 05:51:02;;;;;;;11.13;8.73;;;17.20;99.90;;;;;;5050054;28;20049;-66
2022/08/10 05:53:28;;;;;;;11.75;8.40;;;16.90;99.90;;;;;;5050762;28;20025;-66
2022/08/10 05:55:54;;;;;;;10.40;7.60;;;17.00;99.90;;;;;;5050687;28;20484;-66
2022/08/10 05:58:20;;;;;;;8.90;8.00;;;17.00;99.90;;;;;;5063541;28;20024;-66
2022/08/10 06:00:52;;;;;;;9.43;6.88;;;17.10;99.90;;;;;;5050286;28;20100;-66
2022/08/10 06:03:25;;;;;;;9.18;7.43;;;17.10;99.90;;;;;;5050420;28;20563;-67
2022/08/10 06:05:54;;;;;;;10.63;6.60;;;17.20;99.90;;;;;;5045934;28;20055;-66
2022/08/10 06:08:23;;;;;;;12.65;8.00;;;17.30;99.90;;;;;;5050473;28;20049;-66
2022/08/10 06:10:52;;;;;;;9.38;7.53;;;17.30;99.90;;;;;;5050725;28;20033;-68
2022/08/10 06:16:05;;;;;;;12.35;7.32;;;17.40;99.90;;;;;;5050324;28;20535;-67
2022/08/10 06:18:31;;;;;;;7.78;6.95;;;17.40;99.90;;;;;;5050402;28;20017;-67
2022/08/10 06:20:59;;;;;;;11.00;7.65;;;18.50;99.90;;;;;;5050096;28;20025;-67
2022/08/10 06:23:28;;;;;;;8.25;6.57;;;17.60;99.90;;;;;;5050390;28;20029;-67
2022/08/10 06:25:54;;;;;;;7.82;6.75;;;17.60;99.90;;;;;;5048690;28;20017;-67
2022/08/10 06:28:21;;;;;;;7.97;7.18;;;18.00;99.90;;;;;;5049710;28;20025;-67
2022/08/10 06:30:49;;;;;;;9.20;6.00;;;17.70;99.90;;;;;;5050111;28;20121;-67
2022/08/10 06:33:16;;;;;;;6.97;6.00;;;17.90;99.90;;;;;;5037897;28;20043;-67
2022/08/10 06:35:42;;;;;;;7.43;6.10;;;19.10;99.90;;;;;;5037033;28;20042;-67
2022/08/10 06:38:10;;;;;;;7.57;6.88;;;18.00;99.90;;;;;;5049410;28;20056;-67
2022/08/10 06:40:38;;;;;;;11.80;6.45;;;18.10;99.90;;;;;;5050292;28;20033;-67
2022/08/10 06:43:08;;;;;;;5.78;5.18;;;18.10;99.90;;;;;;5049264;28;20056;-67
2022/08/10 06:45:41;;;;;;;7.30;5.45;;;18.20;99.90;;;;;;5049978;28;20543;-67
2022/08/10 06:48:31;;;;;;;7.88;6.32;;;18.30;99.90;;;;;;5049842;28;20021;-67
2022/08/10 06:51:00;;;;;;;6.72;6.03;;;18.30;99.90;;;;;;5049134;28;20044;-67
2022/08/10 06:53:36;;;;;;;5.35;4.85;;;18.60;99.90;;;;;;5049728;28;20121;-67
2022/08/10 06:56:08;;;;;;;6.90;5.18;;;18.60;99.90;;;;;;5048505;28;20025;-67
2022/08/10 06:58:41;;;;;;;6.85;4.80;;;18.70;99.90;;;;;;5046949;28;20115;-67
2022/08/10 07:01:11;;;;;;;7.88;5.50;;;18.80;99.90;;;;;;5047339;28;20090;-68
2022/08/10 07:03:54;;;;;;;5.50;4.07;;;18.90;99.90;;;;;;5048465;28;20025;-68
2022/08/10 07:06:20;;;;;;;6.93;4.43;;;19.10;99.80;;;;;;5047349;28;20032;-67
2022/08/10 07:08:47;;;;;;;5.85;3.65;;;19.00;99.00;;;;;;5049214;28;20477;-67
2022/08/10 07:11:14;;;;;;;5.25;4.03;;;19.20;99.10;;;;;;5048219;28;20043;-67
2022/08/10 07:13:41;;;;;;;7.22;4.25;;;19.20;98.70;;;;;;5049340;28;20021;-67
2022/08/10 07:16:11;;;;;;;6.50;4.60;;;20.40;98.80;;;;;;5047320;28;20040;-67
2022/08/10 07:18:39;;;;;;;5.03;3.97;;;19.50;98.50;;;;;;5049261;28;20025;-67
2022/08/10 07:21:07;;;;;;;5.35;3.28;;;19.50;98.10;;;;;;5048812;28;20063;-67
2022/08/10 07:23:34;;;;;;;6.13;3.42;;;19.60;98.00;;;;;;5049069;28;20017;-68
2022/08/10 07:26:01;;;;;;;4.40;3.40;;;19.80;97.70;;;;;;5046634;28;20127;-67
2022/08/10 07:28:30;;;;;;;4.72;3.20;;;19.90;97.30;;;;;;5045946;28;20025;-67
2022/08/10 07:30:57;;;;;;;3.92;3.22;;;20.00;97.30;;;;;;5048891;28;20116;-67
2022/08/10 07:33:24;;;;;;;4.68;3.03;;;20.10;97.00;;;;;;5048136;28;20025;-67
2022/08/10 07:35:51;;;;;;;3.67;2.90;;;21.20;97.00;;;;;;5042730;28;20108;-67
2022/08/10 07:38:21;;;;;;;6.07;3.83;;;20.30;96.40;;;;;;5047516;28;20013;-67
2022/08/10 07:40:49;;;;;;;5.10;3.17;;;20.50;96.30;;;;;;5048447;28;20010;-68
2022/08/10 07:43:17;;;;;;;4.13;2.78;;;20.60;96.00;;;;;;5049044;28;20025;-67
2022/08/10 07:45:44;;;;;;;3.47;2.63;;;20.70;95.70;;;;;;5048968;28;20021;-67
2022/08/10 07:48:18;;;;;;;6.18;2.95;;;20.70;95.60;;;;;;5047812;28;20119;-67
2022/08/10 07:50:45;;;;;;;4.80;2.95;;;21.00;94.70;;;;;;5049717;28;20481;-68
2022/08/10 07:53:17;;;;;;;6.88;3.25;;;20.90;95.00;;;;;;5052730;28;20036;-67
2022/08/10 07:55:46;;;;;;;5.65;2.75;;;21.10;94.80;;;;;;5052030;28;20071;-67
2022/08/10 07:58:16;;;;;;;3.25;2.50;;;21.20;94.60;;;;;;5052374;28;20074;-68
2022/08/10 08:00:44;;;;;;;5.13;2.53;;;21.40;94.20;;;;;;5051645;28;20025;-67
2022/08/10 08:03:11;;;;;;;5.70;2.90;;;21.30;93.90;;;;;;5049990;28;20029;-69
2022/08/10 08:05:38;;;;;;;4.63;2.53;;;21.60;93.70;;;;;;5051597;28;20032;-68
2022/08/10 08:08:05;;;;;;;3.72;2.15;;;21.60;93.30;;;;;;5051910;28;20441;-68
2022/08/10 08:10:33;;;;;;;3.63;2.95;;;22.40;93.10;;;;;;5049899;28;20124;-68
2022/08/10 08:13:00;;;;;;;4.35;2.60;;;21.90;92.80;;;;;;5052553;28;20033;-68
2022/08/10 08:15:26;;;;;;;4.07;2.05;;;22.40;92.40;;;;;;5048362;28;20490;-68
2022/08/10 08:17:54;;;;;;;3.33;1.95;;;22.80;92.10;;;;;;5047221;28;20022;-67
2022/08/10 08:20:22;;;;;;;4.15;2.38;;;22.20;91.50;;;;;;5051825;28;20067;-68
2022/08/10 08:22:48;;;;;;;2.42;2.15;;;22.30;91.30;;;;;;5050919;28;20028;-68
2022/08/10 08:25:16;;;;;;;3.53;2.25;;;22.40;91.20;;;;;;5049324;28;20461;-68
2022/08/10 08:27:44;;;;;;;3.72;2.55;;;22.40;91.00;;;;;;5052371;28;20029;-68
2022/08/10 08:30:11;;;;;;;2.88;2.42;;;23.20;91.20;;;;;;5051443;28;20029;-68
2022/08/10 08:32:40;;;;;;;5.35;2.25;;;22.70;90.50;;;;;;5049811;28;20033;-68
2022/08/10 08:35:08;;;;;;;3.80;2.75;;;22.80;90.60;;;;;;5050635;28;20112;-68
2022/08/10 08:37:36;;;;;;;5.97;2.17;;;22.90;90.40;;;;;;5048203;28;20029;-68
2022/08/10 08:40:06;;;;;;;3.47;2.17;;;22.90;90.20;;;;;;5050755;28;20112;-68
2022/08/10 08:42:43;;;;;;;2.20;2.00;;;23.00;90.10;;;;;;5042516;28;20029;-68
2022/08/10 08:45:28;;;;;;;4.70;2.50;;;23.20;88.70;;;;;;5048057;28;20036;-68
2022/08/10 08:48:18;;;;;;;2.60;1.80;;;23.30;90.30;;;;;;5050991;28;20087;-68
2022/08/10 08:51:11;;;;;;;4.47;1.52;;;23.40;88.60;;;;;;5051448;28;20078;-69
2022/08/10 08:53:59;;;;;;;3.58;2.05;;;23.50;89.30;;;;;;5049616;28;20048;-69
2022/08/10 08:56:47;;;;;;;4.68;2.10;;;23.50;87.60;;;;;;5046793;28;20025;-68
2022/08/10 08:59:30;;;;;;;6.47;2.75;;;23.60;86.40;;;;;;5049001;28;20036;-70
2022/08/10 09:02:35;;;;;;;5.15;1.73;;;23.80;88.30;;;;;;5050146;28;20045;-69
2022/08/10 09:05:23;;;;;;;4.85;1.95;;;23.80;86.00;;;;;;5044519;28;20132;-69
2022/08/10 09:08:15;;;;;;;6.55;2.25;;;23.90;85.20;;;;;;5050123;28;20092;-69
2022/08/10 09:11:18;;;;;;;2.97;1.90;;;24.00;86.40;;;;;;5051247;28;20029;-69
2022/08/10 09:13:56;;;;;;;3.80;2.03;;;24.10;84.30;;;;;;5051372;28;20028;-69
2022/08/10 09:16:28;;;;;;;3.75;1.90;;;24.40;85.50;;;;;;5048799;28;20048;-69
2022/08/10 09:19:16;;;;;;;4.60;2.00;;;24.50;83.90;;;;;;5049058;28;20048;-68
2022/08/10 09:21:50;;;;;;;3.55;2.10;;;24.50;81.70;;;;;;5041899;28;20029;-68
2022/08/10 09:24:27;;;;;;;3.35;1.77;;;25.60;83.20;;;;;;5048384;28;20056;-68
2022/08/10 09:26:55;;;;;;;3.38;1.73;;;24.70;81.30;;;;;;5047970;28;20096;-68
2022/08/10 09:29:25;;;;;;;3.22;1.83;;;24.60;81.80;;;;;;5040716;28;20078;-69
2022/08/10 09:32:09;;;;;;;2.55;1.83;;;24.70;81.90;;;;;;5050826;28;20040;-68
2022/08/10 09:34:53;;;;;;;;;;;24.90;80.90;;;;;;5049651;28;20029;-68
2022/08/10 09:37:48;;;;;;;3.45;2.13;;;24.90;79.20;;;;;;5049403;28;19904;-68
2022/08/10 09:40:28;;;;;;;6.10;2.92;;;25.00;80.60;;;;;;5007784;28;20041;-68
2022/08/10 09:43:13;;;;;;;6.15;2.38;;;25.00;80.70;;;;;;5007950;28;20036;-68
2022/08/10 09:45:54;;;;;;;3.65;1.80;;;25.00;80.40;;;;;;5005443;28;20489;-68
2022/08/10 09:48:41;;;;;;;3.17;2.30;;;25.90;78.90;;;;;;5005051;28;20049;-68
2022/08/10 09:51:35;;;;;;;3.55;1.98;;;25.30;76.40;;;;;;5006174;28;20112;-68
2022/08/10 09:54:04;;;;;;;2.45;1.50;;;25.30;74.80;;;;;;5007484;28;20022;-68
2022/08/10 09:57:08;;;;;;;3.80;1.92;;;25.40;76.70;;;;;;5008094;28;20030;-68
2022/08/10 10:00:01;;;;;;;2.67;1.93;;;25.40;75.40;;;;;;5007863;28;20034;-69
2022/08/10 10:02:53;;;;;;;3.58;1.58;;;25.60;75.80;;;;;;4997004;28;20450;-69
2022/08/10 10:05:50;;;;;;;4.07;1.75;;;25.60;74.80;;;;;;5000161;28;20092;-68
2022/08/10 10:08:42;;;;;;;2.25;2.03;;;25.90;73.20;;;;;;5006937;28;20030;-70
2022/08/10 10:11:18;;;;;;;3.83;1.48;;;25.90;73.10;;;;;;5005232;28;20046;-70
2022/08/10 10:13:43;;;;;;;4.53;1.70;;;25.90;74.00;;;;;;5006692;28;20049;-70
2022/08/10 10:16:28;;;;;;;2.20;1.08;;;25.90;73.60;;;;;;5020213;28;20481;-69
2022/08/10 10:19:37;;;;;;;3.10;1.70;;;26.00;71.70;;;;;;5049924;28;20020;-69
2022/08/10 10:22:45;;;;;;;2.17;1.38;;;26.00;69.80;;;;;;5049619;28;20490;-69
2022/08/10 10:25:17;;;;;;;1.33;0.98;;;26.10;69.60;;;;;;5048106;28;20112;-69
2022/08/10 10:27:49;;;;;;;0.97;0.90;;;26.00;71.10;;;;;;5048687;28;20036;-70
2022/08/10 10:30:17;;;;;;;2.00;1.00;;;26.10;68.50;;;;;;5049323;28;20033;-69
2022/08/10 10:32:57;;;;;;;3.33;0.90;;;26.20;70.00;;;;;;5049888;28;20056;-70
2022/08/10 10:35:29;;;;;;;2.30;0.73;;;26.30;69.50;;;;;;5050345;28;20025;-70
2022/08/10 10:37:57;;;;;;;2.22;1.08;;;26.30;67.80;;;;;;5050256;28;20470;-70
2022/08/10 10:40:27;;;;;;;2.75;0.90;;;26.80;67.90;;;;;;5049685;28;20470;-70
2022/08/10 10:43:06;;;;;;;3.42;1.15;;;26.40;68.10;;;;;;5049524;28;20062;-69
2022/08/10 10:45:50;;;;;;;1.85;1.10;;;26.40;66.30;;;;;;5049534;28;20390;-69
2022/08/10 10:48:41;;;;;;;3.03;1.08;;;26.50;66.90;;;;;;5047364;28;20021;-69
2022/08/10 10:51:35;;;;;;;2.22;1.00;;;26.60;67.70;;;;;;5045446;28;20043;-68
2022/08/10 10:54:12;;;;;;;1.50;0.93;;;26.50;67.70;;;;;;5049312;28;20419;-69
2022/08/10 10:57:05;;;;;;;2.47;1.00;;;26.60;69.50;;;;;;5044255;28;20090;-69
2022/08/10 10:59:47;;;;;;;1.83;0.80;;;26.90;70.00;;;;;;5043004;28;20087;-69
2022/08/10 11:02:35;;;;;;;1.43;0.70;;;26.60;68.40;;;;;;5049167;28;20045;-69
2022/08/10 11:05:03;;;;;;;3.53;0.98;;;26.70;70.50;;;;;;5048136;28;20027;-68
2022/08/10 11:07:43;;;;;;;3.17;1.10;;;28.40;71.40;;;;;;5051257;28;20025;-70
2022/08/10 11:10:24;;;;;;;3.38;0.95;;;26.60;70.10;;;;;;5046613;28;20496;-69
2022/08/10 11:13:02;;;;;;;1.27;1.00;;;26.60;69.10;;;;;;5049842;28;20021;-69
2022/08/10 11:15:52;;;;;;;2.60;1.08;;;26.60;67.40;;;;;;5049559;28;20025;-69
2022/08/10 11:18:34;;;;;;;1.38;1.25;;;26.80;69.50;;;;;;5048703;28;20057;-69
2022/08/10 11:21:05;;;;;;;2.47;1.05;;;26.80;69.00;;;;;;5049555;28;20017;-69
2022/08/10 11:23:40;;;;;;;1.73;1.33;;;26.80;68.60;;;;;;5052528;28;20054;-69
2022/08/10 11:26:08;;;;;;;1.92;1.25;;;26.70;66.90;;;;;;5053759;28;20025;-68
2022/08/10 11:28:46;;;;;;;1.80;1.05;;;26.80;68.80;;;;;;5053232;28;20021;-68
2022/08/10 11:31:27;;;;;;;1.45;1.35;;;27.50;69.50;;;;;;5053380;28;20033;-69
2022/08/10 11:33:59;;;;;;;1.27;0.63;;;26.70;68.70;;;;;;5047576;28;20044;-68
2022/08/10 11:36:27;;;;;;;2.33;1.00;;;26.70;68.70;;;;;;5051855;28;20064;-68
2022/08/10 11:39:13;;;;;;;3.90;1.80;;;26.70;68.20;;;;;;5049906;28;20239;-69
2022/08/10 11:41:44;;;;;;;3.97;1.15;;;26.80;68.80;;;;;;5050300;28;20020;-68
2022/08/10 11:44:15;;;;;;;1.85;0.82;;;26.80;65.20;;;;;;5051600;28;20021;-68
2022/08/10 11:47:08;;;;;;;1.95;1.13;;;26.90;65.70;;;;;;5051484;28;20635;-68
2022/08/10 11:50:00;;;;;;;3.40;1.40;;;26.80;67.90;;;;;;5039359;28;20482;-68
2022/08/10 11:52:44;;;;;;;1.65;1.17;;;26.90;66.20;;;;;;5052552;28;20048;-68
2022/08/10 11:55:19;;;;;;;4.63;1.60;;;26.90;66.40;;;;;;5044669;28;20504;-69
2022/08/10 11:57:46;;;;;;;1.02;0.57;;;26.90;67.60;;;;;;5048964;28;20036;-69
2022/08/10 12:00:12;;;;;;;1.55;0.90;;;26.90;67.20;;;;;;5051095;28;20041;-68
2022/08/10 12:02:49;;;;;;;3.13;1.20;;;27.10;66.10;;;;;;5040869;28;20045;-69
2022/08/10 12:05:18;;;;;;;1.13;0.70;;;28.20;66.30;;;;;;5052823;28;20328;-69
2022/08/10 12:07:50;;;;;;;2.80;1.10;;;28.10;66.00;;;;;;5052969;28;20496;-68
2022/08/10 12:10:17;;;;;;;1.52;1.00;;;28.10;66.20;;;;;;5052268;28;20119;-69
2022/08/10 12:13:04;;;;;;;1.13;0.80;;;27.00;64.40;;;;;;5053072;28;20028;-69
2022/08/10 12:15:56;;;;;;;1.10;1.00;;;27.20;62.60;;;;;;5048300;28;20568;-69
2022/08/10 12:18:35;;;;;;;1.42;1.02;;;27.20;62.90;;;;;;5045163;28;20557;-69
2022/08/10 12:21:07;;;;;;;2.03;1.20;;;27.20;64.90;;;;;;5050453;28;20078;-70
2022/08/10 12:23:41;;;;;;;3.00;1.15;;;27.30;64.10;;;;;;5052028;28;20074;-69
2022/08/10 12:26:19;;;;;;;1.45;0.85;;;27.20;63.70;;;;;;5052034;28;20041;-68
2022/08/10 12:29:05;;;;;;;3.70;0.93;;;27.30;63.80;;;;;;5049390;28;20036;-68
2022/08/10 12:31:49;;;;;;;2.50;0.80;;;27.40;61.90;;;;;;5044136;28;20464;-68
2022/08/10 12:34:42;;;;;;;0.93;0.70;;;27.40;63.80;;;;;;5048649;28;20025;-68
2022/08/10 12:37:22;;;;;;;1.33;0.95;;;28.90;63.00;;;;;;5052379;28;20091;-69
2022/08/10 12:40:12;;;;;;;2.83;0.90;;;27.40;61.60;;;;;;5039590;28;20020;-69
2022/08/10 12:43:10;;;;;;;2.00;1.02;;;28.10;65.20;;;;;;5052115;28;20056;-69
2022/08/10 12:46:06;;;;;;;2.58;1.05;;;26.90;61.40;;;;;;5039323;28;20033;-69
2022/08/10 12:48:42;;;;;;;2.03;1.20;;;27.50;61.90;;;;;;5035951;28;20055;-69
2022/08/10 12:51:22;;;;;;;3.40;0.82;;;28.50;63.70;;;;;;5040918;28;20041;-69
2022/08/10 12:54:09;;;;;;;1.50;0.85;;;27.60;60.50;;;;;;5051201;28;20028;-69
2022/08/10 12:56:42;;;;;;;1.90;0.70;;;27.60;60.60;;;;;;5051508;28;20363;-69
2022/08/10 12:59:12;;;;;;;2.13;0.70;;;27.60;62.00;;;;;;5048218;28;20048;-69
2022/08/10 13:01:38;;;;;;;2.70;0.93;;;27.70;61.80;;;;;;5051496;28;20084;-69
2022/08/10 13:04:08;;;;;;;1.17;0.80;;;27.90;61.70;;;;;;5049130;28;20029;-69
2022/08/10 13:06:40;;;;;;;0.75;0.45;;;27.70;62.00;;;;;;5049514;28;20053;-68
2022/08/10 13:09:11;;;;;;;1.85;0.88;;;27.90;61.20;;;;;;5051196;28;20056;-69
2022/08/10 13:11:39;;;;;;;1.25;0.85;;;27.80;59.60;;;;;;5051900;28;20041;-69
2022/08/10 13:14:33;;;;;;;1.75;0.73;;;27.90;58.30;;;;;;5050579;28;20068;-69
2022/08/10 13:17:01;;;;;;;1.00;0.70;;;27.90;57.60;;;;;;5034442;28;20018;-70
2022/08/10 13:19:32;;;;;;;1.67;1.17;;;27.80;59.20;;;;;;5032014;28;20033;-70
2022/08/10 13:22:01;;;;;;;0.85;0.77;;;27.90;59.60;;;;;;5054537;28;20469;-70